createdAt,value
2019-03-06T00:00:40.230Z,19.53
2019-03-06T00:03:06.626Z,19.07
2019-03-06T00:05:32.790Z,18.90
2019-03-06T00:07:58.962Z,18.98
2019-03-06T00:10:27.557Z,18.31
2019-03-06T00:12:53.734Z,19.11
2019-03-06T00:15:19.899Z,18.54
2019-03-06T00:17:46.102Z,19.43
2019-03-06T00:20:12.266Z,18.70
2019-03-06T00:22:38.411Z,19.70
2019-03-06T00:25:05.510Z,19.70
2019-03-06T00:27:31.682Z,19.04
2019-03-06T00:29:58.374Z,19.82
2019-03-06T00:32:24.572Z,18.77
2019-03-06T00:34:51.837Z,18.68
2019-03-06T00:37:18.008Z,19.06
2019-03-06T00:39:46.115Z,18.70
2019-03-06T00:42:12.387Z,19.26
2019-03-06T00:44:39.530Z,19.00
2019-03-06T00:47:05.724Z,18.95
2019-03-06T00:49:31.889Z,19.61
2019-03-06T00:51:58.055Z,19.11
2019-03-06T00:54:24.247Z,19.40
2019-03-06T00:56:50.418Z,19.79
2019-03-06T00:59:16.586Z,18.51
2019-03-06T01:01:42.881Z,18.54
2019-03-06T01:04:09.054Z,19.29
2019-03-06T01:06:35.221Z,18.39
2019-03-06T01:09:01.417Z,18.73
2019-03-06T01:11:27.581Z,17.79
2019-03-06T01:13:53.750Z,18.08
2019-03-06T01:16:19.947Z,17.63
2019-03-06T01:18:46.119Z,18.01
2019-03-06T01:21:12.387Z,18.54
2019-03-06T01:23:38.585Z,18.36
2019-03-06T01:26:04.751Z,18.19
2019-03-06T01:28:31.021Z,18.06
2019-03-06T01:30:57.211Z,17.92
2019-03-06T01:33:25.342Z,18.30
2019-03-06T01:35:53.612Z,18.26
2019-03-06T01:38:38.313Z,18.00
2019-03-06T01:41:08.924Z,18.41
2019-03-06T01:43:52.095Z,18.05
2019-03-06T01:46:18.400Z,18.16
2019-03-06T01:48:44.562Z,18.20
2019-03-06T01:51:11.727Z,20.22
2019-03-06T01:53:38.127Z,19.02
2019-03-06T01:56:04.391Z,21.39
2019-03-06T01:58:30.688Z,20.96
2019-03-06T02:00:56.952Z,21.57
2019-03-06T02:03:23.119Z,21.95
2019-03-06T02:05:49.344Z,21.10
2019-03-06T02:08:15.621Z,22.11
2019-03-06T02:10:41.875Z,21.97
2019-03-06T02:13:08.065Z,22.03
2019-03-06T02:15:34.327Z,19.81
2019-03-06T02:18:00.502Z,20.13
2019-03-06T02:20:26.788Z,19.98
2019-03-06T02:22:52.952Z,20.16
2019-03-06T02:25:19.115Z,20.12
2019-03-06T02:27:45.332Z,20.18
2019-03-06T02:30:17.370Z,19.74
2019-03-06T02:32:43.537Z,20.04
2019-03-06T02:35:09.731Z,19.38
2019-03-06T02:37:35.894Z,19.46
2019-03-06T02:40:03.872Z,19.69
2019-03-06T02:42:30.079Z,19.65
2019-03-06T02:44:56.334Z,20.09
2019-03-06T02:47:22.553Z,20.15
2019-03-06T02:49:48.766Z,19.67
2019-03-06T02:52:14.934Z,19.31
2019-03-06T02:54:41.198Z,19.38
2019-03-06T02:57:07.899Z,19.27
2019-03-06T02:59:35.973Z,19.19
2019-03-06T03:02:04.033Z,19.40
2019-03-06T03:04:32.134Z,19.40
2019-03-06T03:07:00.199Z,19.39
2019-03-06T03:09:26.373Z,19.02
2019-03-06T03:11:53.075Z,19.43
2019-03-06T03:14:19.234Z,18.91
2019-03-06T03:16:45.394Z,19.77
2019-03-06T03:19:12.025Z,18.60
2019-03-06T03:21:38.189Z,19.23
2019-03-06T03:24:04.373Z,19.09
2019-03-06T03:26:30.669Z,19.26
2019-03-06T03:28:56.836Z,18.44
2019-03-06T03:31:23.334Z,18.83
2019-03-06T03:33:49.580Z,18.85
2019-03-06T03:36:15.794Z,18.91
2019-03-06T03:38:41.961Z,19.97
2019-03-06T03:41:08.157Z,19.94
2019-03-06T03:43:34.539Z,19.04
2019-03-06T03:46:00.685Z,20.12
2019-03-06T03:48:26.991Z,20.49
2019-03-06T03:50:53.154Z,20.09
2019-03-06T03:53:19.310Z,20.16
2019-03-06T03:55:45.516Z,19.91
2019-03-06T03:58:11.681Z,20.26
2019-03-06T04:00:37.844Z,20.67
2019-03-06T04:03:04.143Z,20.02
2019-03-06T04:05:30.308Z,20.15
2019-03-06T04:07:56.475Z,19.88
2019-03-06T04:10:22.676Z,19.79
2019-03-06T04:12:48.837Z,20.00
2019-03-06T04:15:17.092Z,19.80
2019-03-06T04:17:43.398Z,19.40
2019-03-06T04:20:12.359Z,19.71
2019-03-06T04:22:38.637Z,19.52
2019-03-06T04:25:05.829Z,19.25
2019-03-06T04:27:32.085Z,19.54
2019-03-06T04:29:58.355Z,19.66
2019-03-06T04:32:24.541Z,18.34
2019-03-06T04:34:50.807Z,17.85
2019-03-06T04:37:17.069Z,17.99
2019-03-06T04:39:43.276Z,18.68
2019-03-06T04:42:09.442Z,18.72
2019-03-06T04:44:35.604Z,18.56
2019-03-06T04:47:02.003Z,18.92
2019-03-06T04:49:28.322Z,18.67
2019-03-06T04:51:54.598Z,19.22
2019-03-06T04:54:20.797Z,19.13
2019-03-06T04:56:46.962Z,19.17
2019-03-06T04:59:13.118Z,19.29
2019-03-06T05:01:39.515Z,18.84
2019-03-06T05:04:05.789Z,19.33
2019-03-06T05:06:32.064Z,19.20
2019-03-06T05:08:58.460Z,19.05
2019-03-06T05:11:24.639Z,19.04
2019-03-06T05:13:50.800Z,20.13
2019-03-06T05:16:16.988Z,20.46
2019-03-06T05:18:51.058Z,20.20
2019-03-06T05:21:17.212Z,19.90
2019-03-06T05:23:43.409Z,19.30
2019-03-06T05:26:09.584Z,18.92
2019-03-06T05:28:35.738Z,20.13
2019-03-06T05:31:01.936Z,21.21
2019-03-06T05:33:28.782Z,21.95
2019-03-06T05:36:04.882Z,23.05
2019-03-06T05:38:34.745Z,24.57
2019-03-06T05:41:00.908Z,25.21
2019-03-06T05:43:27.602Z,25.25
2019-03-06T05:45:53.759Z,25.98
2019-03-06T05:48:19.925Z,26.82
2019-03-06T05:50:46.317Z,27.29
2019-03-06T05:53:12.480Z,27.75
2019-03-06T05:55:38.651Z,27.64
2019-03-06T05:58:04.841Z,28.23
2019-03-06T06:00:31.126Z,26.83
2019-03-06T06:02:57.396Z,25.98
2019-03-06T06:05:23.707Z,25.03
2019-03-06T06:07:49.865Z,25.82
2019-03-06T06:10:16.146Z,25.84
2019-03-06T06:12:42.334Z,25.25
2019-03-06T06:15:13.298Z,25.57
2019-03-06T06:17:39.449Z,25.31
2019-03-06T06:20:08.640Z,24.77
2019-03-06T06:22:36.699Z,24.80
2019-03-06T06:25:03.561Z,24.80
2019-03-06T06:27:29.960Z,24.87
2019-03-06T06:29:56.129Z,24.12
2019-03-06T06:32:22.694Z,23.40
2019-03-06T06:34:48.888Z,22.06
2019-03-06T06:37:15.051Z,22.44
2019-03-06T06:39:41.222Z,21.26
2019-03-06T06:42:07.910Z,22.03
2019-03-06T06:44:34.072Z,21.79
2019-03-06T06:47:00.246Z,21.50
2019-03-06T06:49:26.467Z,21.72
2019-03-06T06:52:04.979Z,22.17
2019-03-06T06:54:38.046Z,22.76
2019-03-06T06:57:22.802Z,23.09
2019-03-06T06:59:58.667Z,22.11
2019-03-06T07:02:42.591Z,21.97
2019-03-06T07:05:15.764Z,22.66
2019-03-06T07:08:00.155Z,23.30
2019-03-06T07:10:30.829Z,22.48
2019-03-06T07:13:13.753Z,23.84
2019-03-06T07:15:44.675Z,23.15
2019-03-06T07:18:12.739Z,22.22
2019-03-06T07:20:55.884Z,22.19
2019-03-06T07:23:32.951Z,22.64
2019-03-06T07:26:03.902Z,23.86
2019-03-06T07:28:40.713Z,21.74
2019-03-06T07:31:26.860Z,22.01
2019-03-06T07:33:55.031Z,21.05
2019-03-06T07:36:39.401Z,21.69
2019-03-06T07:39:08.851Z,21.96
2019-03-06T07:41:37.931Z,23.07
2019-03-06T07:44:29.919Z,23.61
2019-03-06T07:47:09.518Z,23.53
2019-03-06T07:49:55.773Z,22.92
2019-03-06T07:52:26.427Z,23.66
2019-03-06T07:55:10.903Z,23.10
2019-03-06T07:58:14.476Z,23.08
2019-03-06T08:00:40.772Z,23.67
2019-03-06T08:03:06.937Z,23.21
2019-03-06T08:05:33.112Z,24.10
2019-03-06T08:07:59.299Z,24.06
2019-03-06T08:10:27.388Z,23.61
2019-03-06T08:12:55.439Z,24.29
2019-03-06T08:15:32.245Z,24.51
2019-03-06T08:18:16.786Z,23.98
2019-03-06T08:20:44.881Z,23.61
2019-03-06T08:23:15.721Z,24.02
2019-03-06T08:25:45.133Z,24.00
2019-03-06T08:28:12.223Z,25.01
2019-03-06T08:30:43.424Z,25.50
2019-03-06T08:33:17.957Z,25.20
2019-03-06T08:35:37.817Z,24.06
2019-03-06T08:38:03.981Z,24.82
2019-03-06T08:40:30.136Z,23.53
2019-03-06T08:42:59.577Z,24.91
2019-03-06T08:45:30.583Z,24.89
2019-03-06T08:48:10.682Z,26.09
2019-03-06T08:50:41.995Z,25.71
2019-03-06T08:53:10.104Z,25.72
2019-03-06T08:55:43.844Z,26.40
2019-03-06T08:58:18.307Z,26.50
2019-03-06T09:00:54.169Z,26.87
2019-03-06T09:03:24.728Z,28.26
2019-03-06T09:06:09.698Z,26.36
2019-03-06T09:08:54.878Z,27.69
2019-03-06T09:11:22.978Z,25.88
2019-03-06T09:13:53.792Z,26.26
2019-03-06T09:16:33.940Z,26.72
2019-03-06T09:19:16.940Z,26.46
2019-03-06T09:21:47.547Z,26.62
2019-03-06T09:24:18.691Z,26.27
2019-03-06T09:26:46.762Z,25.43
2019-03-06T09:29:26.781Z,26.38
2019-03-06T09:31:55.195Z,25.35
2019-03-06T09:34:32.389Z,26.73
2019-03-06T09:37:16.982Z,26.58
2019-03-06T09:39:47.623Z,26.12
2019-03-06T09:42:30.958Z,27.97
2019-03-06T09:45:01.572Z,28.09
2019-03-06T09:47:35.417Z,26.75
2019-03-06T09:50:06.162Z,26.16
2019-03-06T09:52:36.029Z,26.66
2019-03-06T09:55:13.553Z,28.55
2019-03-06T09:57:57.972Z,27.23
2019-03-06T10:00:44.038Z,26.85
2019-03-06T10:03:12.131Z,28.38
2019-03-06T10:05:40.195Z,28.21
2019-03-06T10:08:13.897Z,27.35
2019-03-06T10:10:58.585Z,26.47
2019-03-06T10:13:42.128Z,27.32
2019-03-06T10:16:20.082Z,28.46
2019-03-06T10:18:54.054Z,27.91
2019-03-06T10:21:20.224Z,27.18
2019-03-06T10:23:46.379Z,27.14
2019-03-06T10:26:12.571Z,27.76
2019-03-06T10:28:38.735Z,27.73
2019-03-06T10:31:05.401Z,28.10
2019-03-06T10:33:31.595Z,28.66
2019-03-06T10:35:58.192Z,28.44
2019-03-06T10:38:24.576Z,27.34
2019-03-06T10:40:50.760Z,26.00
2019-03-06T10:43:17.049Z,27.20
2019-03-06T10:45:43.211Z,28.45
2019-03-06T10:48:09.511Z,28.22
2019-03-06T10:50:35.775Z,28.50
2019-03-06T10:53:01.942Z,26.19
2019-03-06T10:55:28.413Z,27.63
2019-03-06T10:57:54.771Z,27.00
2019-03-06T11:00:31.485Z,27.45
2019-03-06T11:02:57.839Z,28.17
2019-03-06T11:05:28.675Z,28.91
2019-03-06T11:07:55.566Z,28.94
2019-03-06T11:10:25.218Z,27.44
2019-03-06T11:12:50.210Z,26.56
2019-03-06T11:15:18.730Z,26.43
2019-03-06T11:17:45.263Z,27.76
2019-03-06T11:20:15.529Z,29.82
2019-03-06T11:22:41.744Z,28.69
2019-03-06T11:25:11.608Z,26.08
2019-03-06T11:27:37.785Z,28.35
2019-03-06T11:30:10.658Z,27.84
2019-03-06T11:32:36.816Z,28.81
2019-03-06T11:35:06.378Z,28.10
2019-03-06T11:37:32.569Z,28.15
2019-03-06T11:39:58.724Z,28.85
2019-03-06T11:42:24.879Z,31.05
2019-03-06T11:44:51.106Z,27.75
2019-03-06T11:47:17.751Z,28.27
2019-03-06T11:49:44.023Z,27.32
2019-03-06T11:52:10.211Z,27.19
2019-03-06T11:54:36.370Z,26.89
2019-03-06T11:57:03.087Z,25.48
2019-03-06T11:59:29.281Z,25.88
2019-03-06T12:01:55.535Z,27.41
2019-03-06T12:04:21.997Z,27.02
2019-03-06T12:06:48.190Z,26.63
2019-03-06T12:09:25.343Z,26.06
2019-03-06T12:11:51.536Z,26.05
2019-03-06T12:14:17.805Z,25.86
2019-03-06T12:16:43.960Z,25.77
2019-03-06T12:19:10.812Z,26.95
2019-03-06T12:21:36.984Z,28.45
2019-03-06T12:24:03.136Z,27.63
2019-03-06T12:26:29.442Z,27.44
2019-03-06T12:28:55.595Z,27.46
2019-03-06T12:31:21.891Z,28.03
2019-03-06T12:33:48.076Z,28.26
2019-03-06T12:36:14.570Z,28.44
2019-03-06T12:38:40.731Z,27.01
2019-03-06T12:41:06.923Z,26.95
2019-03-06T12:43:33.281Z,27.33
2019-03-06T12:46:23.386Z,27.60
2019-03-06T12:48:48.091Z,26.31
2019-03-06T12:51:14.346Z,27.41
2019-03-06T12:53:40.941Z,27.62
2019-03-06T12:56:07.102Z,28.23
2019-03-06T12:58:33.273Z,26.00
2019-03-06T13:00:59.509Z,26.34
2019-03-06T13:03:25.656Z,26.45
2019-03-06T13:05:51.814Z,27.90
2019-03-06T13:08:19.907Z,28.18
2019-03-06T13:10:46.069Z,28.86
2019-03-06T13:13:12.527Z,27.32
2019-03-06T13:15:38.716Z,28.35
2019-03-06T13:18:04.972Z,29.21
2019-03-06T13:20:31.124Z,28.09
2019-03-06T13:22:57.420Z,26.66
2019-03-06T13:25:24.190Z,26.66
2019-03-06T13:27:54.815Z,26.08
2019-03-06T13:30:21.874Z,26.52
2019-03-06T13:32:55.739Z,25.86
2019-03-06T13:35:22.095Z,25.59
2019-03-06T13:37:51.110Z,25.70
2019-03-06T13:40:18.762Z,26.92
2019-03-06T13:42:45.324Z,25.26
2019-03-06T13:45:13.823Z,25.40
2019-03-06T13:47:40.083Z,23.37
2019-03-06T13:50:08.546Z,23.30
2019-03-06T13:52:34.864Z,23.83
2019-03-06T13:55:01.022Z,23.29
2019-03-06T13:57:27.188Z,22.92
2019-03-06T13:59:53.432Z,23.03
2019-03-06T14:02:19.803Z,24.26
2019-03-06T14:04:46.364Z,25.25
2019-03-06T14:07:12.647Z,23.52
2019-03-06T14:09:38.812Z,24.41
2019-03-06T14:12:05.073Z,24.29
2019-03-06T14:14:31.272Z,26.02
2019-03-06T14:16:57.531Z,27.17
2019-03-06T14:19:27.571Z,26.34
2019-03-06T14:21:53.976Z,25.33
2019-03-06T14:24:20.416Z,26.90
2019-03-06T14:26:46.570Z,26.88
2019-03-06T14:29:12.769Z,26.37
2019-03-06T14:31:38.929Z,26.40
2019-03-06T14:34:06.371Z,25.79
2019-03-06T14:36:32.530Z,26.18
2019-03-06T14:38:58.696Z,24.80
2019-03-06T14:41:24.857Z,26.01
2019-03-06T14:43:51.053Z,26.94
2019-03-06T14:46:17.326Z,27.40
2019-03-06T14:48:43.490Z,27.74
2019-03-06T14:51:09.786Z,27.83
2019-03-06T14:53:35.946Z,27.18
2019-03-06T14:56:02.106Z,26.73
2019-03-06T14:58:28.413Z,27.05
2019-03-06T15:00:54.920Z,27.17
2019-03-06T15:03:21.181Z,27.05
2019-03-06T15:05:47.585Z,26.66
2019-03-06T15:08:13.853Z,25.89
2019-03-06T15:10:42.922Z,26.18
2019-03-06T15:13:08.133Z,26.27
2019-03-06T15:15:34.283Z,26.25
2019-03-06T15:18:00.445Z,26.20
2019-03-06T15:20:28.659Z,26.05
2019-03-06T15:22:56.113Z,26.78
2019-03-06T15:25:23.876Z,26.80
2019-03-06T15:27:50.172Z,26.68
2019-03-06T15:30:17.703Z,26.42
2019-03-06T15:32:44.001Z,27.03
2019-03-06T15:35:11.208Z,26.89
2019-03-06T15:37:38.068Z,26.58
2019-03-06T15:40:10.082Z,26.14
2019-03-06T15:42:36.379Z,26.25
2019-03-06T15:45:04.236Z,26.22
2019-03-06T15:47:33.680Z,26.17
2019-03-06T15:49:58.633Z,26.13
2019-03-06T15:52:25.439Z,25.55
2019-03-06T15:54:52.769Z,24.16
2019-03-06T15:57:19.382Z,24.60
2019-03-06T15:59:45.553Z,24.65
2019-03-06T16:02:11.955Z,23.78
2019-03-06T16:04:38.161Z,24.16
2019-03-06T16:07:04.436Z,24.60
2019-03-06T16:09:31.108Z,24.11
2019-03-06T16:11:57.296Z,23.81
2019-03-06T16:14:23.463Z,24.26
2019-03-06T16:16:49.664Z,24.31
2019-03-06T16:19:15.974Z,23.58
2019-03-06T16:21:42.130Z,23.99
2019-03-06T16:24:09.801Z,23.87
2019-03-06T16:26:36.183Z,24.10
2019-03-06T16:29:02.840Z,23.31
2019-03-06T16:31:29.100Z,23.97
2019-03-06T16:33:55.400Z,23.57
2019-03-06T16:36:21.559Z,23.11
2019-03-06T16:38:47.722Z,23.57
2019-03-06T16:41:14.006Z,23.13
2019-03-06T16:43:40.158Z,23.71
2019-03-06T16:46:06.415Z,23.03
2019-03-06T16:48:32.612Z,22.97
2019-03-06T16:50:58.976Z,22.61
2019-03-06T16:53:25.133Z,22.38
2019-03-06T16:55:51.328Z,22.66
2019-03-06T16:58:17.482Z,23.14
2019-03-06T17:00:44.058Z,23.47
2019-03-06T17:03:10.377Z,23.25
2019-03-06T17:05:37.427Z,22.97
2019-03-06T17:08:04.304Z,22.77
2019-03-06T17:10:31.993Z,22.67
2019-03-06T17:12:58.247Z,22.39
2019-03-06T17:15:25.719Z,22.35
2019-03-06T17:17:52.511Z,22.51
2019-03-06T17:20:21.378Z,21.94
2019-03-06T17:22:48.259Z,21.88
2019-03-06T17:25:14.925Z,21.76
2019-03-06T17:27:41.188Z,22.21
2019-03-06T17:30:13.630Z,22.20
2019-03-06T17:32:55.795Z,22.23
2019-03-06T17:35:23.555Z,22.40
2019-03-06T17:37:50.011Z,22.25
2019-03-06T17:40:16.199Z,22.51
2019-03-06T17:42:42.352Z,21.83
2019-03-06T17:45:09.181Z,22.04
2019-03-06T17:47:35.506Z,22.00
2019-03-06T17:50:01.665Z,22.16
2019-03-06T17:52:27.815Z,22.36
2019-03-06T17:54:54.225Z,22.30
2019-03-06T17:57:20.389Z,22.00
2019-03-06T17:59:46.647Z,21.92
2019-03-06T18:02:12.946Z,21.75
2019-03-06T18:04:39.212Z,21.64
2019-03-06T18:07:06.138Z,22.08
2019-03-06T18:09:32.563Z,22.24
2019-03-06T18:11:59.218Z,21.99
2019-03-06T18:14:25.379Z,21.34
2019-03-06T18:16:51.663Z,21.53
2019-03-06T18:19:17.932Z,22.17
2019-03-06T18:21:44.087Z,21.95
2019-03-06T18:24:10.279Z,22.01
2019-03-06T18:26:36.553Z,22.00
2019-03-06T18:31:29.352Z,21.87
2019-03-06T18:33:55.605Z,21.59
2019-03-06T18:36:21.767Z,21.57
2019-03-06T18:38:48.459Z,21.73
2019-03-06T18:41:14.632Z,21.71
2019-03-06T18:43:40.787Z,21.60
2019-03-06T18:46:07.083Z,21.76
2019-03-06T18:48:33.246Z,21.66
2019-03-06T18:50:59.403Z,20.76
2019-03-06T18:53:25.764Z,20.77
2019-03-06T18:55:51.978Z,20.98
2019-03-06T18:58:18.140Z,20.72
2019-03-06T19:00:44.338Z,20.67
2019-03-06T19:03:10.510Z,20.74
2019-03-06T19:05:37.065Z,20.63
2019-03-06T19:08:03.522Z,20.65
2019-03-06T19:10:29.696Z,20.64
2019-03-06T19:12:55.851Z,20.69
2019-03-06T19:15:24.642Z,20.52
2019-03-06T19:17:50.796Z,20.25
2019-03-06T19:20:18.746Z,20.55
2019-03-06T19:22:45.670Z,20.65
2019-03-06T19:25:12.225Z,20.54
2019-03-06T19:27:38.400Z,20.31
2019-03-06T19:30:17.559Z,20.44
2019-03-06T19:32:44.122Z,20.18
2019-03-06T19:35:10.398Z,19.82
2019-03-06T19:37:36.587Z,19.93
2019-03-06T19:40:05.451Z,20.10
2019-03-06T19:42:31.618Z,20.20
2019-03-06T19:44:58.216Z,20.16
2019-03-06T19:47:24.376Z,20.18
2019-03-06T19:49:50.537Z,19.91
2019-03-06T19:52:16.737Z,19.84
2019-03-06T19:54:42.891Z,19.31
2019-03-06T19:57:09.066Z,19.63
2019-03-06T19:59:35.264Z,19.61
2019-03-06T20:02:01.417Z,19.57
2019-03-06T20:04:27.597Z,19.45
2019-03-06T20:06:54.360Z,19.38
2019-03-06T20:09:25.250Z,19.15
2019-03-06T20:11:51.896Z,19.45
2019-03-06T20:14:18.345Z,16.99
2019-03-06T20:16:44.497Z,17.33
2019-03-06T20:19:10.668Z,17.86
2019-03-06T20:21:36.883Z,18.24
2019-03-06T20:24:03.644Z,18.27
2019-03-06T20:26:29.806Z,18.18
2019-03-06T20:28:56.018Z,17.62
2019-03-06T20:31:22.177Z,17.08
2019-03-06T20:33:48.345Z,17.29
2019-03-06T20:36:14.554Z,17.68
2019-03-06T20:38:40.824Z,17.73
2019-03-06T20:41:06.978Z,18.00
2019-03-06T20:43:33.173Z,18.21
2019-03-06T20:45:59.836Z,18.39
2019-03-06T20:48:26.136Z,18.30
2019-03-06T20:50:52.338Z,18.02
2019-03-06T20:53:18.494Z,17.76
2019-03-06T20:55:44.653Z,17.73
2019-03-06T20:58:10.847Z,17.52
2019-03-06T21:00:37.013Z,17.61
2019-03-06T21:03:03.178Z,17.68
2019-03-06T21:05:29.367Z,17.79
2019-03-06T21:07:55.583Z,17.79
2019-03-06T21:10:21.744Z,17.74
2019-03-06T21:12:47.938Z,17.74
2019-03-06T21:15:17.701Z,17.68
2019-03-06T21:17:43.862Z,17.82
2019-03-06T21:20:15.508Z,17.58
2019-03-06T21:22:41.779Z,17.32
2019-03-06T21:25:10.848Z,17.34
2019-03-06T21:27:37.052Z,17.91
2019-03-06T21:30:07.025Z,17.91
2019-03-06T21:32:33.193Z,18.28
2019-03-06T21:34:59.391Z,18.28
2019-03-06T21:37:25.562Z,18.23
2019-03-06T21:39:51.953Z,17.78
2019-03-06T21:42:18.151Z,18.01
2019-03-06T21:44:44.307Z,17.89
2019-03-06T21:47:10.470Z,17.90
2019-03-06T21:49:36.667Z,17.99
2019-03-06T21:52:03.127Z,17.97
2019-03-06T21:54:29.303Z,18.13
2019-03-06T21:56:55.503Z,18.26
2019-03-06T21:59:22.574Z,18.26
2019-03-06T22:01:48.738Z,18.53
2019-03-06T22:04:15.038Z,18.62
2019-03-06T22:06:42.619Z,18.78
2019-03-06T22:09:11.229Z,18.67
2019-03-06T22:11:37.439Z,18.35
2019-03-06T22:14:03.613Z,17.89
2019-03-06T22:16:29.777Z,17.36
2019-03-06T22:18:55.983Z,17.12
2019-03-06T22:21:22.152Z,17.30
2019-03-06T22:23:48.308Z,17.70
2019-03-06T22:26:14.504Z,17.57
2019-03-06T22:28:40.976Z,17.39
2019-03-06T22:31:07.147Z,17.66
2019-03-06T22:33:33.340Z,17.62
2019-03-06T22:35:59.495Z,17.00
2019-03-06T22:38:25.653Z,17.28
2019-03-06T22:40:51.850Z,17.17
2019-03-06T22:43:18.013Z,16.71
2019-03-06T22:45:44.180Z,16.94
2019-03-06T22:48:10.393Z,16.21
2019-03-06T22:50:36.552Z,16.56
2019-03-06T22:53:02.711Z,16.49
2019-03-06T22:55:28.911Z,16.71
2019-03-06T22:57:55.074Z,17.01
2019-03-06T23:00:31.860Z,17.09
2019-03-06T23:02:58.333Z,17.36
2019-03-06T23:05:30.849Z,17.43
2019-03-06T23:07:57.139Z,17.35
2019-03-06T23:10:23.321Z,17.30
2019-03-06T23:12:49.484Z,16.96
2019-03-06T23:15:15.683Z,16.63
2019-03-06T23:17:41.852Z,17.02
2019-03-06T23:20:08.016Z,17.09
2019-03-06T23:22:34.207Z,16.89
2019-03-06T23:25:00.359Z,17.07
2019-03-06T23:27:26.625Z,17.02
2019-03-06T23:29:52.820Z,16.28
2019-03-06T23:32:18.974Z,16.67
2019-03-06T23:34:45.239Z,16.91
2019-03-06T23:37:11.433Z,17.05
2019-03-06T23:39:37.787Z,16.43
2019-03-06T23:42:04.750Z,16.48
2019-03-06T23:44:30.947Z,16.60
2019-03-06T23:46:57.096Z,16.71
2019-03-06T23:49:23.251Z,16.58
2019-03-06T23:51:51.352Z,16.44
2019-03-06T23:54:19.395Z,15.69
2019-03-06T23:56:45.570Z,15.17
2019-03-06T23:59:11.759Z,15.56
